YBRK

Rockhampton Airport

Airport
ICAO code
YBRK
IATA Code
ROK
Summary
ICAO Region
APAC
ICAO Territory
Location

, Queensland

Serving
Rockhampton
Elevation
34 ft
Coordinates
23° 22' 55" S , 150° 28' 31" E
Metar
YBRK 191130Z AUTO 14001KT 9999 // SCT060 24/20 Q1014 RF00.0/000.0

Airport map

Aerial View

SKYbrary Partners:

Safety knowledge contributed by: